< < Back
Terminal Aerodrome Forecast


Current Version              Previous Versions:   1  2  3  4  5  6  7  8  9  

Terminal Aerodrome Forecast

319
FTUS44 KMOB 181234 AAB
TAFMOB
TAF AMD
KMOB 181234Z 1813/1912 05006KT 3/4SM RA BR VCSH OVC003
     FM181500 17011KT P6SM -RA OVC025
     FM181900 17008G20KT P6SM VCTS OVC015CB PROB30 1900/1906 VRB25KT
      2SM TSRA BR BKN012CB OVC015=



Latest METAR

295
SAUS80 KWBC 190300
MTRMOB
METAR KMOB 190256Z 20007KT 10SM -RA FEW050 SCT120 22/21 A2991 RMK AO2
SLP126 P0002 60011 T02170211 53009


USA.gov is the U.S. government's official web portal to all federal, state and local government web resources and services.